createdAt,value
2023-02-09T00:01:15.910Z,9.27
2023-02-09T00:03:44.518Z,9.27
2023-02-09T00:06:15.462Z,7.23
2023-02-09T00:08:44.954Z,7.87
2023-02-09T00:11:19.075Z,7.43
2023-02-09T00:13:45.998Z,7.03
2023-02-09T00:16:14.157Z,8.63
2023-02-09T00:18:41.972Z,9.23
2023-02-09T00:21:12.327Z,8.00
2023-02-09T00:23:41.675Z,6.50
2023-02-09T00:26:12.616Z,7.53
2023-02-09T00:28:40.465Z,9.17
2023-02-09T00:31:09.814Z,7.03
2023-02-09T00:33:38.520Z,7.77
2023-02-09T00:36:07.761Z,6.63
2023-02-09T00:38:36.138Z,10.17
2023-02-09T00:41:04.873Z,5.93
2023-02-09T00:43:34.687Z,8.10
2023-02-09T00:46:02.670Z,8.27
2023-02-09T00:48:30.647Z,7.07
2023-02-09T00:50:58.420Z,9.07
2023-02-09T00:53:26.826Z,6.80
2023-02-09T00:55:54.611Z,7.97
2023-02-09T00:58:22.373Z,11.03
2023-02-09T01:00:51.582Z,9.63
2023-02-09T01:03:19.330Z,10.53
2023-02-09T01:05:47.025Z,11.07
2023-02-09T01:08:14.726Z,11.40
2023-02-09T01:10:42.813Z,9.10
2023-02-09T01:13:10.949Z,8.23
2023-02-09T01:15:40.464Z,13.10
2023-02-09T01:18:09.751Z,9.90
2023-02-09T01:20:37.696Z,10.77
2023-02-09T01:23:05.442Z,9.13
2023-02-09T01:25:33.408Z,11.47
2023-02-09T01:28:01.266Z,13.87
2023-02-09T01:30:29.320Z,8.83
2023-02-09T01:32:57.071Z,11.67
2023-02-09T01:35:26.179Z,10.77
2023-02-09T01:37:53.947Z,9.70
2023-02-09T01:40:21.731Z,11.77
2023-02-09T01:42:49.647Z,7.23
2023-02-09T01:45:25.808Z,8.20
2023-02-09T01:47:59.633Z,6.93
2023-02-09T01:50:32.078Z,9.73
2023-02-09T01:53:00.028Z,8.07
2023-02-09T01:55:30.202Z,11.07
2023-02-09T01:58:02.020Z,9.60
2023-02-09T02:00:30.160Z,8.47
2023-02-09T02:03:00.844Z,10.63
2023-02-09T02:05:32.441Z,8.43
2023-02-09T02:08:05.485Z,9.17
2023-02-09T02:10:33.777Z,9.00
2023-02-09T02:13:02.358Z,7.57
2023-02-09T02:15:36.115Z,9.70
2023-02-09T02:18:14.973Z,9.50
2023-02-09T02:21:34.629Z,7.47
2023-02-09T02:24:20.456Z,5.20
2023-02-09T02:26:56.661Z,9.30
2023-02-09T02:29:39.758Z,7.23
2023-02-09T02:32:17.092Z,9.53
2023-02-09T02:34:51.522Z,9.50
2023-02-09T02:37:57.054Z,7.67
2023-02-09T02:40:41.503Z,6.97
2023-02-09T02:43:17.762Z,6.17
2023-02-09T02:45:50.419Z,10.23
2023-02-09T02:48:28.865Z,6.87
2023-02-09T02:51:00.947Z,9.63
2023-02-09T02:53:32.500Z,7.97
2023-02-09T02:56:06.601Z,8.70
2023-02-09T02:58:37.464Z,10.27
2023-02-09T03:01:10.249Z,8.43
2023-02-09T03:03:42.629Z,10.20
2023-02-09T03:06:11.775Z,7.93
2023-02-09T03:08:51.147Z,12.70
2023-02-09T03:11:20.954Z,8.33
2023-02-09T03:14:05.824Z,6.90
2023-02-09T03:16:41.097Z,8.13
2023-02-09T03:19:20.555Z,10.27
2023-02-09T03:21:53.343Z,11.70
2023-02-09T03:24:31.886Z,7.67
2023-02-09T03:27:05.700Z,9.57
2023-02-09T03:29:36.078Z,10.13
2023-02-09T03:32:03.826Z,9.80
2023-02-09T03:34:32.979Z,11.03
2023-02-09T03:37:00.712Z,13.97
2023-02-09T03:39:28.672Z,9.80
2023-02-09T03:41:56.396Z,8.20
2023-02-09T03:44:29.869Z,9.80
2023-02-09T03:47:00.311Z,9.30
2023-02-09T03:49:31.547Z,9.20
2023-02-09T03:52:01.636Z,9.93
2023-02-09T03:54:30.244Z,10.40
2023-02-09T03:56:58.482Z,9.60
2023-02-09T03:59:26.944Z,9.27
2023-02-09T04:01:56.358Z,12.40
2023-02-09T04:04:24.872Z,8.87
2023-02-09T04:06:53.009Z,9.57
2023-02-09T04:09:22.262Z,9.97
2023-02-09T04:11:50.035Z,8.93
2023-02-09T04:14:18.327Z,10.70
2023-02-09T04:16:46.396Z,16.13
2023-02-09T04:19:14.140Z,9.60
2023-02-09T04:21:41.903Z,8.67
2023-02-09T04:24:10.263Z,11.10
2023-02-09T04:26:39.405Z,11.20
2023-02-09T04:29:07.189Z,10.63
2023-02-09T04:31:36.037Z,14.13
2023-02-09T04:34:03.824Z,10.90
2023-02-09T04:36:31.664Z,10.50
2023-02-09T04:38:59.457Z,10.20
2023-02-09T04:41:27.436Z,11.30
2023-02-09T04:43:56.602Z,7.60
2023-02-09T04:46:25.096Z,8.40
2023-02-09T04:48:52.873Z,9.40
2023-02-09T04:51:20.693Z,10.00
2023-02-09T04:53:48.452Z,9.60
2023-02-09T04:56:17.582Z,10.07
2023-02-09T04:59:03.295Z,8.23
2023-02-09T05:01:32.558Z,7.30
2023-02-09T05:04:00.394Z,6.93
2023-02-09T05:06:28.600Z,6.77
2023-02-09T05:08:56.544Z,8.00
2023-02-09T05:11:25.570Z,12.00
2023-02-09T05:13:53.522Z,7.80
2023-02-09T05:16:21.393Z,7.73
2023-02-09T05:18:51.163Z,9.50
2023-02-09T05:21:19.159Z,7.17
2023-02-09T05:23:46.954Z,8.40
2023-02-09T05:26:14.761Z,9.10
2023-02-09T05:28:42.531Z,7.50
2023-02-09T05:31:10.387Z,6.53
2023-02-09T05:33:38.284Z,6.40
2023-02-09T05:36:09.774Z,7.97
2023-02-09T05:38:38.015Z,7.43
2023-02-09T05:41:06.797Z,11.83
2023-02-09T05:43:34.811Z,7.53
2023-02-09T05:46:08.167Z,5.77
2023-02-09T05:48:36.285Z,6.87
2023-02-09T05:51:04.059Z,7.27
2023-02-09T05:53:33.274Z,6.70
2023-02-09T05:56:01.012Z,8.87
2023-02-09T05:58:28.766Z,7.60
2023-02-09T06:00:56.636Z,7.07
2023-02-09T06:03:24.485Z,9.73
2023-02-09T06:05:52.539Z,6.13
2023-02-09T06:08:20.251Z,7.50
2023-02-09T06:10:49.407Z,7.87
2023-02-09T06:13:17.160Z,6.03
2023-02-09T06:15:45.055Z,6.60
2023-02-09T06:18:12.839Z,5.83
2023-02-09T06:20:40.656Z,7.90
2023-02-09T06:23:08.439Z,7.87
2023-02-09T06:25:36.274Z,7.47
2023-02-09T06:28:05.593Z,7.73
2023-02-09T06:30:33.424Z,6.50
2023-02-09T06:33:01.228Z,9.67
2023-02-09T06:35:29.128Z,7.07
2023-02-09T06:37:58.350Z,9.23
2023-02-09T06:40:26.168Z,7.53
2023-02-09T06:42:53.907Z,10.67
2023-02-09T06:45:23.116Z,8.03
2023-02-09T06:47:50.974Z,7.93
2023-02-09T06:50:19.473Z,8.97
2023-02-09T06:52:47.769Z,8.50
2023-02-09T06:55:15.611Z,9.77
2023-02-09T06:57:43.381Z,6.57
2023-02-09T07:00:13.988Z,6.67
2023-02-09T07:02:44.468Z,9.77
2023-02-09T07:05:12.995Z,9.17
2023-02-09T07:07:41.274Z,8.27
2023-02-09T07:10:12.741Z,9.87
2023-02-09T07:12:43.425Z,12.33
2023-02-09T07:15:12.822Z,7.07
2023-02-09T07:17:40.921Z,8.80
2023-02-09T07:20:11.320Z,14.43
2023-02-09T07:22:39.151Z,10.50
2023-02-09T07:25:07.738Z,8.10
2023-02-09T07:27:36.114Z,10.37
2023-02-09T07:30:03.877Z,8.37
2023-02-09T07:32:31.703Z,10.50
2023-02-09T07:34:59.718Z,9.73
2023-02-09T07:37:28.863Z,8.20
2023-02-09T07:39:56.784Z,11.57
2023-02-09T07:42:24.738Z,7.53
2023-02-09T07:44:52.654Z,9.17
2023-02-09T07:47:20.496Z,7.70
2023-02-09T07:49:48.341Z,7.47
2023-02-09T07:52:16.084Z,7.47
2023-02-09T07:54:45.399Z,8.27
2023-02-09T07:57:14.415Z,7.20
2023-02-09T07:59:42.210Z,8.13
2023-02-09T08:02:18.047Z,8.47
2023-02-09T08:04:46.181Z,9.23
2023-02-09T08:07:14.130Z,7.57
2023-02-09T08:09:45.187Z,10.97
2023-02-09T08:12:14.749Z,10.03
2023-02-09T08:14:48.330Z,7.73
2023-02-09T08:17:25.884Z,10.13
2023-02-09T08:19:58.172Z,8.40
2023-02-09T08:22:30.802Z,8.67
2023-02-09T08:25:00.234Z,8.13
2023-02-09T08:27:29.594Z,8.83
2023-02-09T08:29:59.096Z,9.20
2023-02-09T08:32:26.913Z,13.77
2023-02-09T08:34:54.740Z,8.33
2023-02-09T08:37:22.505Z,7.30
2023-02-09T08:39:50.295Z,9.90
2023-02-09T08:42:18.080Z,9.47
2023-02-09T08:44:47.276Z,11.43
2023-02-09T08:47:15.084Z,10.50
2023-02-09T08:49:42.993Z,9.93
2023-02-09T08:52:10.976Z,9.30
2023-02-09T08:54:39.074Z,10.43
2023-02-09T08:57:06.841Z,8.63
2023-02-09T08:59:34.663Z,8.87
2023-02-09T09:02:03.815Z,9.37
2023-02-09T09:04:31.615Z,9.30
2023-02-09T09:06:59.513Z,9.87
2023-02-09T09:09:27.306Z,9.20
2023-02-09T09:11:55.131Z,8.33
2023-02-09T09:14:22.931Z,11.00
2023-02-09T09:16:50.828Z,13.97
2023-02-09T09:19:20.080Z,15.10
2023-02-09T09:21:47.944Z,10.27
2023-02-09T09:24:16.258Z,12.37
2023-02-09T09:26:44.046Z,9.47
2023-02-09T09:29:11.937Z,10.87
2023-02-09T09:31:40.118Z,13.50
2023-02-09T09:34:08.073Z,9.07
2023-02-09T09:36:37.476Z,15.43
2023-02-09T09:39:05.511Z,10.50
2023-02-09T09:41:36.608Z,10.37
2023-02-09T09:44:11.287Z,9.53
2023-02-09T09:46:42.506Z,10.17
2023-02-09T09:49:20.569Z,10.50
2023-02-09T09:51:53.678Z,10.53
2023-02-09T09:54:24.470Z,11.47
2023-02-09T09:56:54.268Z,9.40
2023-02-09T09:59:24.763Z,10.47
2023-02-09T10:01:54.654Z,10.63
2023-02-09T10:04:22.529Z,13.13
2023-02-09T10:07:00.246Z,14.30
2023-02-09T10:09:36.772Z,13.70
2023-02-09T10:12:26.132Z,12.27
2023-02-09T10:14:53.917Z,11.40
2023-02-09T10:17:21.763Z,11.30
2023-02-09T10:20:02.534Z,11.87
2023-02-09T10:22:31.823Z,12.87
2023-02-09T10:25:00.492Z,11.60
2023-02-09T10:27:31.829Z,10.80
2023-02-09T10:30:18.570Z,11.13
2023-02-09T10:32:46.488Z,13.20
2023-02-09T10:35:25.777Z,13.57
2023-02-09T10:38:00.142Z,11.47
2023-02-09T10:40:29.593Z,11.17
2023-02-09T10:42:59.636Z,11.63
2023-02-09T10:45:30.399Z,11.57
2023-02-09T10:48:00.770Z,13.90
2023-02-09T10:50:28.794Z,11.03
2023-02-09T10:53:00.965Z,18.63
2023-02-09T10:55:35.828Z,17.00
2023-02-09T10:58:15.373Z,11.73
2023-02-09T11:00:50.227Z,17.20
2023-02-09T11:03:20.690Z,16.57
2023-02-09T11:05:58.000Z,10.77
2023-02-09T11:08:36.119Z,12.13
2023-02-09T11:11:07.994Z,12.53
2023-02-09T11:13:42.029Z,14.17
2023-02-09T11:16:38.042Z,11.73
2023-02-09T11:19:14.298Z,13.43
2023-02-09T11:22:02.432Z,14.10
2023-02-09T11:24:52.324Z,14.87
2023-02-09T11:27:41.254Z,16.00
2023-02-09T11:30:21.730Z,13.77
2023-02-09T11:32:54.598Z,16.63
2023-02-09T11:35:26.767Z,14.70
2023-02-09T11:38:00.822Z,16.67
2023-02-09T11:40:39.717Z,16.13
2023-02-09T11:43:17.523Z,14.17
2023-02-09T11:45:47.490Z,14.30
2023-02-09T11:48:23.750Z,17.37
2023-02-09T11:51:02.695Z,13.87
2023-02-09T11:53:38.050Z,17.93
2023-02-09T11:56:10.046Z,14.23
2023-02-09T11:58:50.691Z,14.60
2023-02-09T12:01:41.163Z,17.90
2023-02-09T12:04:18.760Z,14.47
2023-02-09T12:06:50.689Z,16.50
2023-02-09T12:09:32.678Z,15.80
2023-02-09T12:12:16.388Z,18.67
2023-02-09T12:14:57.995Z,17.73
2023-02-09T12:17:32.945Z,16.17
2023-02-09T12:20:02.316Z,16.83
2023-02-09T12:22:56.508Z,19.70
2023-02-09T12:26:00.603Z,18.73
2023-02-09T12:28:45.856Z,17.33
2023-02-09T12:31:26.554Z,20.37
2023-02-09T12:34:24.499Z,21.50
2023-02-09T12:37:18.089Z,18.20
2023-02-09T12:40:18.395Z,16.93
2023-02-09T12:42:47.940Z,15.77
2023-02-09T12:45:35.547Z,18.40
2023-02-09T12:48:13.908Z,19.97
2023-02-09T12:50:54.332Z,16.23
2023-02-09T12:53:33.590Z,22.40
2023-02-09T12:56:04.388Z,17.63
2023-02-09T12:58:37.507Z,18.17
2023-02-09T13:01:07.627Z,19.30
2023-02-09T13:03:45.210Z,21.80
2023-02-09T13:06:28.374Z,16.23
2023-02-09T13:09:00.983Z,17.83
2023-02-09T13:11:41.543Z,14.97
2023-02-09T13:14:14.899Z,20.33
2023-02-09T13:17:03.620Z,16.77
2023-02-09T13:19:52.829Z,16.93
2023-02-09T13:22:30.824Z,19.13
2023-02-09T13:25:01.496Z,16.00
2023-02-09T13:27:30.784Z,16.57
2023-02-09T13:30:00.221Z,17.93
2023-02-09T13:32:42.948Z,21.23
2023-02-09T13:35:20.246Z,17.90
2023-02-09T13:37:49.924Z,18.50
2023-02-09T13:40:22.202Z,18.60
2023-02-09T13:42:57.416Z,19.93
2023-02-09T13:45:26.799Z,17.03
2023-02-09T13:47:57.209Z,21.67
2023-02-09T13:50:28.280Z,18.67
2023-02-09T13:53:08.221Z,23.73
2023-02-09T13:55:39.910Z,19.13
2023-02-09T13:58:10.043Z,18.27
2023-02-09T14:00:42.342Z,21.03
2023-02-09T14:03:17.606Z,21.30
2023-02-09T14:05:50.319Z,19.57
2023-02-09T14:08:19.893Z,17.77
2023-02-09T14:10:53.137Z,18.67
2023-02-09T14:13:25.170Z,18.93
2023-02-09T14:16:09.250Z,20.87
2023-02-09T14:18:51.153Z,16.50
2023-02-09T14:21:22.381Z,22.07
2023-02-09T14:24:04.860Z,20.63
2023-02-09T14:26:38.114Z,19.63
2023-02-09T14:29:15.748Z,21.67
2023-02-09T14:31:47.517Z,16.77
2023-02-09T14:34:30.459Z,18.73
2023-02-09T14:37:00.041Z,20.27
2023-02-09T14:39:31.055Z,20.10
2023-02-09T14:42:14.742Z,21.03
2023-02-09T14:44:46.890Z,22.60
2023-02-09T14:47:29.296Z,20.97
2023-02-09T14:50:00.369Z,17.07
2023-02-09T14:52:31.599Z,19.50
2023-02-09T14:55:03.184Z,17.20
2023-02-09T14:57:33.162Z,18.33
2023-02-09T15:00:01.110Z,19.77
2023-02-09T15:02:28.983Z,20.00
2023-02-09T15:04:56.864Z,17.97
2023-02-09T15:07:35.964Z,18.43
2023-02-09T15:10:04.466Z,18.43
2023-02-09T15:12:32.380Z,20.53
2023-02-09T15:15:01.748Z,24.60
2023-02-09T15:17:31.507Z,23.63
2023-02-09T15:19:59.957Z,21.77
2023-02-09T15:22:29.292Z,18.97
2023-02-09T15:24:57.696Z,22.90
2023-02-09T15:27:27.910Z,21.03
2023-02-09T15:29:59.484Z,17.63
2023-02-09T15:32:28.883Z,20.63
2023-02-09T15:34:56.636Z,23.00
2023-02-09T15:37:27.516Z,17.03
2023-02-09T15:40:00.035Z,21.00
2023-02-09T15:42:45.221Z,21.20
2023-02-09T15:45:36.460Z,20.63
2023-02-09T15:48:07.679Z,23.47
2023-02-09T15:50:37.687Z,25.40
2023-02-09T15:53:09.422Z,24.20
2023-02-09T15:55:39.546Z,22.53
2023-02-09T15:58:13.739Z,23.03
2023-02-09T16:00:42.180Z,28.37
2023-02-09T16:03:15.692Z,26.03
2023-02-09T16:05:44.052Z,20.70
2023-02-09T16:08:18.885Z,19.83
2023-02-09T16:10:49.119Z,18.37
2023-02-09T16:13:18.097Z,23.20
2023-02-09T16:15:45.904Z,19.67
2023-02-09T16:18:13.944Z,16.83
2023-02-09T16:20:46.951Z,16.57
2023-02-09T16:23:20.820Z,17.00
2023-02-09T16:25:51.901Z,17.67
2023-02-09T16:28:21.923Z,16.10
2023-02-09T16:30:53.258Z,16.47
2023-02-09T16:33:21.774Z,18.27
2023-02-09T16:35:54.295Z,19.27
2023-02-09T16:38:23.642Z,16.57
2023-02-09T16:40:53.740Z,19.33
2023-02-09T16:43:22.357Z,20.03
2023-02-09T16:46:02.958Z,18.27
2023-02-09T16:48:34.595Z,20.30
2023-02-09T16:51:03.024Z,18.30
2023-02-09T16:53:33.876Z,18.00
2023-02-09T16:56:05.724Z,16.33
2023-02-09T16:58:34.042Z,18.27
2023-02-09T17:01:01.967Z,17.77
2023-02-09T17:03:35.002Z,17.80
2023-02-09T17:06:03.551Z,17.00
2023-02-09T17:08:32.937Z,14.80
2023-02-09T17:11:01.889Z,20.17
2023-02-09T17:13:32.094Z,18.03
2023-02-09T17:16:01.985Z,16.47
2023-02-09T17:18:32.623Z,15.80
2023-02-09T17:21:03.145Z,12.97
2023-02-09T17:23:32.184Z,16.83
2023-02-09T17:26:00.781Z,14.47
2023-02-09T17:28:33.476Z,14.97
2023-02-09T17:31:11.552Z,12.63
2023-02-09T17:33:39.476Z,13.40
2023-02-09T17:36:25.628Z,23.43
2023-02-09T17:38:54.902Z,13.60
2023-02-09T17:41:27.980Z,15.03
2023-02-09T17:44:13.890Z,13.63
2023-02-09T17:46:47.578Z,16.93
2023-02-09T17:49:15.724Z,12.73
2023-02-09T17:51:46.127Z,12.37
2023-02-09T17:54:15.856Z,15.73
2023-02-09T17:56:44.312Z,13.17
2023-02-09T17:59:14.725Z,14.37
2023-02-09T18:01:45.171Z,16.77
2023-02-09T18:04:18.292Z,15.70
2023-02-09T18:06:46.029Z,13.33
2023-02-09T18:09:14.995Z,16.53
2023-02-09T18:11:59.554Z,17.00
2023-02-09T18:14:30.310Z,13.57
2023-02-09T18:16:58.247Z,15.67
2023-02-09T18:19:26.887Z,13.90
2023-02-09T18:21:58.209Z,13.33
2023-02-09T18:24:28.842Z,16.47
2023-02-09T18:26:56.934Z,15.73
2023-02-09T18:29:29.451Z,15.13
2023-02-09T18:32:00.481Z,16.43
2023-02-09T18:34:29.106Z,17.10
2023-02-09T18:36:57.017Z,15.17
2023-02-09T18:39:25.180Z,12.63
2023-02-09T18:41:54.696Z,14.37
2023-02-09T18:44:28.799Z,14.17
2023-02-09T18:47:00.417Z,14.73
2023-02-09T18:49:28.188Z,11.07
2023-02-09T18:51:57.017Z,11.43
2023-02-09T18:54:26.144Z,11.43
2023-02-09T18:56:54.920Z,16.43
2023-02-09T18:59:22.745Z,11.97
2023-02-09T19:01:50.724Z,12.87
2023-02-09T19:04:19.905Z,12.00
2023-02-09T19:06:47.703Z,13.90
2023-02-09T19:09:15.767Z,11.73
2023-02-09T19:11:43.553Z,13.93
2023-02-09T19:14:28.820Z,13.90
2023-02-09T19:16:56.583Z,12.83
2023-02-09T19:19:26.068Z,13.00
2023-02-09T19:21:54.574Z,12.50
2023-02-09T19:24:22.671Z,11.57
2023-02-09T19:26:50.448Z,14.60
2023-02-09T19:29:18.298Z,15.83
2023-02-09T19:31:48.701Z,13.90
2023-02-09T19:34:16.461Z,12.80
2023-02-09T19:36:45.847Z,10.93
2023-02-09T19:39:13.814Z,12.37
2023-02-09T19:41:41.665Z,10.33
2023-02-09T19:44:09.764Z,13.43
2023-02-09T19:46:37.553Z,15.00
2023-02-09T19:49:05.401Z,12.17
2023-02-09T19:51:33.180Z,13.73
2023-02-09T19:54:02.264Z,14.73
2023-02-09T19:56:30.184Z,13.30
2023-02-09T19:58:58.045Z,11.23
2023-02-09T20:01:27.022Z,12.40
2023-02-09T20:03:54.945Z,16.17
2023-02-09T20:06:22.723Z,14.47
2023-02-09T20:08:50.971Z,16.10
2023-02-09T20:11:21.490Z,12.33
2023-02-09T20:13:51.583Z,15.57
2023-02-09T20:16:22.148Z,14.37
2023-02-09T20:18:50.330Z,13.00
2023-02-09T20:21:20.342Z,17.93
2023-02-09T20:23:48.725Z,14.57
2023-02-09T20:26:18.760Z,9.70
2023-02-09T20:28:48.900Z,11.93
2023-02-09T20:31:20.214Z,14.60
2023-02-09T20:33:48.178Z,12.70
2023-02-09T20:36:16.414Z,13.53
2023-02-09T20:38:44.213Z,9.93
2023-02-09T20:41:13.940Z,12.70
2023-02-09T20:43:59.710Z,15.93
2023-02-09T20:46:48.824Z,12.00
2023-02-09T20:49:18.347Z,11.27
2023-02-09T20:51:46.922Z,12.73
2023-02-09T20:54:16.020Z,11.30
2023-02-09T20:56:44.651Z,9.60
2023-02-09T20:59:13.668Z,10.67
2023-02-09T21:01:44.000Z,10.63
2023-02-09T21:04:11.712Z,10.57
2023-02-09T21:06:40.105Z,14.13
2023-02-09T21:09:09.433Z,10.07
2023-02-09T21:11:37.294Z,12.87
2023-02-09T21:14:05.291Z,11.20
2023-02-09T21:16:33.687Z,9.87
2023-02-09T21:19:02.906Z,11.73
2023-02-09T21:21:30.680Z,12.70
2023-02-09T21:23:59.317Z,10.87
2023-02-09T21:26:28.578Z,10.87
2023-02-09T21:28:56.915Z,10.70
2023-02-09T21:31:27.341Z,7.80
2023-02-09T21:33:55.196Z,11.43
2023-02-09T21:36:24.440Z,11.57
2023-02-09T21:38:52.185Z,10.83
2023-02-09T21:41:39.680Z,10.47
2023-02-09T21:44:09.872Z,12.03
2023-02-09T21:46:37.656Z,8.97
2023-02-09T21:49:05.680Z,12.03
2023-02-09T21:51:35.618Z,10.90
2023-02-09T21:54:03.378Z,10.17
2023-02-09T21:56:31.137Z,8.60
2023-02-09T21:58:58.857Z,9.77
2023-02-09T22:01:26.732Z,11.03
2023-02-09T22:03:57.309Z,12.57
2023-02-09T22:06:25.655Z,10.37
2023-02-09T22:08:54.938Z,8.97
2023-02-09T22:11:22.924Z,9.73
2023-02-09T22:13:50.778Z,14.10
2023-02-09T22:16:21.354Z,7.93
2023-02-09T22:18:49.436Z,8.70
2023-02-09T22:21:17.432Z,10.77
2023-02-09T22:23:45.278Z,12.77
2023-02-09T22:26:15.178Z,7.23
2023-02-09T22:28:44.100Z,9.87
2023-02-09T22:31:13.929Z,8.33
2023-02-09T22:33:41.797Z,9.03
2023-02-09T22:36:13.032Z,7.23
2023-02-09T22:38:40.973Z,6.90
2023-02-09T22:41:21.363Z,9.43
2023-02-09T22:43:52.110Z,11.17
2023-02-09T22:46:20.542Z,8.93
2023-02-09T22:48:51.570Z,5.73
2023-02-09T22:51:19.880Z,8.70
2023-02-09T22:53:48.158Z,7.63
2023-02-09T22:56:16.458Z,7.43
2023-02-09T22:58:44.307Z,8.33
2023-02-09T23:01:14.742Z,10.00
2023-02-09T23:03:42.880Z,9.37
2023-02-09T23:06:13.701Z,6.60
2023-02-09T23:08:41.636Z,6.43
2023-02-09T23:11:11.805Z,12.57
2023-02-09T23:13:39.886Z,5.67
2023-02-09T23:16:09.682Z,10.37
2023-02-09T23:18:39.539Z,8.43
2023-02-09T23:21:09.376Z,11.43
2023-02-09T23:23:37.159Z,6.63
2023-02-09T23:26:05.478Z,7.93
2023-02-09T23:28:33.280Z,10.40
2023-02-09T23:31:04.927Z,7.93
2023-02-09T23:33:32.795Z,6.63
2023-02-09T23:36:04.425Z,8.17
2023-02-09T23:38:32.248Z,8.73
2023-02-09T23:41:00.280Z,6.93
2023-02-09T23:43:28.076Z,9.47
2023-02-09T23:45:55.915Z,10.63
2023-02-09T23:48:23.699Z,12.80
2023-02-09T23:50:51.454Z,8.47
2023-02-09T23:53:20.591Z,10.77
2023-02-09T23:55:51.983Z,10.13
2023-02-09T23:58:21.570Z,10.63
